Latest Weather Observations for Oenpelli Airport

IDD60801

Issued at 7:01 pm CST Friday 1 July 2016 (issued every 30 minutes, with the page automatically refreshed every 10 minutes)

About weather observations | Map of weather stations | Latest weather observations for NT | Other Formats
Station Details ID: 014310 Name: OENPELLI AIRPORT Lat: -12.33 Lon: 133.01 Height: 7.5 m
Data from the previous 72 hours. | See also: Recent months at Oenpelli Airport
Date/Time
CST
Temp
°C
App
Temp
°C
Dew
Point
°C
Rel
Hum
%
Delta-T
°C
Wind Press
QNH
hPa
Press
MSL
hPa
Rain since
9am
mm
Dir  Spd
km/h
Gust
km/h
Spd
kts
Gust
kts
01/07:00pm 28.0 28.0 13.5 41 8.6 ENE 6 9 3 5 1013.0 1012.9 0.0
01/06:30pm 29.2 28.8 13.0 37 9.6 ENE 7 9 4 5 1012.7 1012.6 0.0
01/06:00pm 30.4 29.6 12.8 34 10.4 ENE 9 11 5 6 1012.4 1012.3 0.0
01/05:30pm 31.4 29.8 12.7 32 11.1 ENE 13 22 7 12 1012.2 1012.1 0.0
01/05:00pm 32.3 30.2 12.5 30 11.8 ENE 15 22 8 12 1012.0 1011.9 0.0
01/04:30pm 32.6 30.5 12.3 29 12.0 ENE 15 24 8 13 1011.8 1011.7 0.0
01/04:00pm 32.6 31.0 11.7 28 12.3 NE 11 24 6 13 1011.8 1011.7 0.0
01/03:30pm 32.7 30.6 12.3 28 12.1 ENE 15 24 8 13 1012.0 1011.9 0.0
01/03:00pm 32.0 30.1 11.7 28 11.9 ENE 13 22 7 12 1012.2 1012.1 0.0
01/02:30pm 32.0 29.3 11.7 28 11.9 ESE 17 37 9 20 1012.6 1012.5 0.0
01/02:00pm 32.1 29.1 10.8 27 12.3 E 17 24 9 13 1013.0 1012.9 0.0
01/01:30pm 31.6 28.0 9.8 26 12.4 ESE 19 32 10 17 1013.6 1013.5 0.0
01/01:00pm 31.2 27.6 10.0 27 12.1 E 19 26 10 14 1013.9 1013.8 0.0
01/12:30pm 31.3 28.4 11.1 29 11.7 ESE 17 28 9 15 1014.3 1014.2 0.0
01/12:00pm 30.7 26.5 11.1 30 11.3 E 24 37 13 20 1014.8 1014.7 0.0
01/11:30am 29.6 26.0 10.7 31 10.8 ESE 20 35 11 19 1015.2 1015.1 0.0
01/11:00am 29.2 25.7 12.2 35 9.9 ESE 22 32 12 17 1015.5 1015.4 0.0
01/10:30am 28.4 26.2 14.3 42 8.5 E 19 28 10 15 1015.9 1015.8 0.0
01/10:00am 27.6 26.0 14.9 45 7.7 ESE 17 28 9 15 1016.3 1016.2 0.0
01/09:30am 27.4 26.9 17.0 53 6.5 ESE 15 26 8 14 1016.4 1016.3 0.0
01/09:00am 26.6 27.5 18.5 61 5.2 E 11 20 6 11 1016.4 1016.3 0.0
01/08:30am 25.1 27.9 18.8 68 4.0 E 2 4 1 2 1016.5 1016.4 0.0
01/08:00am 23.6 26.5 19.1 76 2.9 NE 2 6 1 3 1016.2 1016.1 0.0
01/07:30am 20.0 22.5 17.2 84 1.7 CALM 0 0 0 0 1016.0 1015.9 0.0
01/07:00am 19.1 21.1 16.0 82 1.8 CALM 0 0 0 0 1015.7 1015.6 0.0
01/06:30am 19.3 20.5 16.0 81 2.0 N 4 6 2 3 1015.6 1015.5 0.0
01/06:00am 19.7 21.8 16.2 80 2.1 CALM 0 0 0 0 1015.2 1015.1 0.0
01/05:30am 20.3 22.5 16.5 79 2.3 CALM 0 0 0 0 1014.8 1014.7 0.0
01/05:00am 20.1 22.0 15.7 76 2.6 CALM 0 0 0 0 1014.6 1014.5 0.0
01/04:30am 21.0 22.8 15.5 71 3.3 CALM 0 2 0 1 1014.4 1014.3 0.0
01/04:00am 23.8 25.4 16.8 65 4.3 ENE 4 7 2 4 1014.2 1014.1 0.0
01/03:30am 24.4 25.5 17.1 63 4.5 SE 7 11 4 6 1014.0 1013.9 0.0
01/03:00am 24.3 25.5 17.3 65 4.3 SE 7 9 4 5 1014.1 1014.0 0.0
01/02:30am 24.2 25.5 17.0 64 4.4 ESE 6 7 3 4 1014.2 1014.1 0.0
01/02:00am 25.2 26.4 17.4 62 4.9 E 7 9 4 5 1014.3 1014.2 0.0
01/01:30am 25.7 26.5 17.4 60 5.2 E 9 13 5 7 1014.7 1014.6 0.0
01/01:00am 25.8 26.9 17.2 59 5.4 ESE 7 11 4 6 1014.8 1014.7 0.0
01/12:30am 26.5 26.4 17.0 56 5.9 ESE 13 20 7 11 1014.8 1014.7 0.0
01/12:00am 26.4 26.9 16.6 55 6.1 ESE 9 13 5 7 1014.5 1014.4 0.0
 
Date/Time
CST
Temp
°C
App
Temp
°C
Dew
Point
°C
Rel
Hum
%
Delta-T
°C
Wind Press
QNH
hPa
Press
MSL
hPa
Rain since
9am
mm
Dir  Spd
km/h
Gust
km/h
Spd
kts
Gust
kts
30/11:30pm 25.8 27.0 16.9 58 5.5 ENE 6 11 3 6 1014.5 1014.4 0.0
30/11:00pm 25.6 26.5 16.2 56 5.8 NE 6 9 3 5 1014.4 1014.3 0.0
30/10:30pm 28.2 28.2 15.1 44 8.0 ESE 9 11 5 6 1014.5 1014.4 0.0
30/10:00pm 28.6 28.6 15.2 44 8.2 ESE 9 15 5 8 1014.5 1014.4 0.0
30/09:30pm 28.9 29.3 15.4 44 8.3 SE 7 15 4 8 1014.4 1014.3 0.0
30/09:00pm 28.6 29.1 15.5 45 8.0 ESE 7 9 4 5 1014.2 1014.1 0.0
30/08:30pm 28.9 29.3 15.4 44 8.3 ESE 7 13 4 7 1013.9 1013.8 0.0
30/08:00pm 29.5 29.6 15.6 43 8.6 ESE 9 13 5 7 1013.5 1013.4 0.0
30/07:30pm 29.9 30.4 15.6 42 8.8 SE 7 9 4 5 1013.2 1013.1 0.0
30/07:00pm 30.4 30.4 15.3 40 9.3 ESE 9 13 5 7 1012.8 1012.7 0.0
30/06:30pm 31.0 30.7 15.4 38 9.6 ESE 11 19 6 10 1012.5 1012.4 0.0
30/06:00pm 31.6 31.2 15.1 36 10.2 SE 11 20 6 11 1012.3 1012.2 0.0
30/05:30pm 32.5 32.2 15.5 36 10.6 ESE 11 17 6 9 1011.9 1011.8 0.0
30/05:00pm 32.0 32.1 15.5 37 10.2 SE 9 17 5 9 1011.7 1011.6 0.0
30/04:30pm 33.6 33.7 15.6 34 11.3 SE 9 13 5 7 1011.5 1011.4 0.0
30/04:00pm 32.9 32.6 15.4 35 10.9 SE 11 19 6 10 1011.6 1011.5 0.0
30/03:30pm 33.7 34.3 15.7 34 11.3 SE 7 17 4 9 1011.8 1011.7 0.0
30/03:00pm 32.2 32.0 15.7 37 10.3 ESE 11 19 6 10 1012.1 1012.0 0.0
30/02:30pm 33.7 33.3 16.1 34 11.1 ESE 13 24 7 13 1012.3 1012.2 0.0
30/02:00pm 33.7 33.8 16.6 36 10.8 E 11 20 6 11 1012.8 1012.7 0.0
30/01:30pm 32.8 32.8 16.2 37 10.4 ESE 11 24 6 13 1013.3 1013.2 0.0
30/01:00pm 32.6 31.9 16.4 37 10.2 SE 15 28 8 15 1013.8 1013.7 0.0
30/12:30pm 32.1 32.2 16.4 39 9.9 SE 11 24 6 13 1014.4 1014.3 0.0
30/12:00pm 31.6 31.2 17.1 41 9.2 E 15 26 8 14 1014.8 1014.7 0.0
30/11:30am 31.6 31.0 17.5 43 9.0 ESE 17 26 9 14 1015.4 1015.3 0.0
30/11:00am 30.2 30.0 17.6 46 8.0 E 15 24 8 13 1015.9 1015.8 0.0
30/10:30am 29.5 29.0 17.7 49 7.5 ESE 17 28 9 15 1016.2 1016.1 0.0
30/10:00am 28.8 28.6 18.6 54 6.6 ESE 17 26 9 14 1016.5 1016.4 0.0
30/09:30am 27.6 27.7 18.3 57 5.9 SE 15 22 8 12 1016.7 1016.6 0.0
30/09:00am 27.1 28.0 18.4 59 5.5 ESE 11 17 6 9 1016.9 1016.8 0.0
30/08:30am 26.2 27.1 18.3 61 5.0 ESE 11 20 6 11 1016.7 1016.6 0.0
30/08:00am 25.4 26.6 18.3 65 4.5 E 9 15 5 8 1016.4 1016.3 0.0
30/07:30am 24.6 25.6 17.8 66 4.3 SE 9 15 5 8 1016.0 1015.9 0.0
30/07:00am 24.2 25.2 17.7 67 4.1 SE 9 13 5 7 1015.5 1015.4 0.0
30/06:30am 23.2 25.2 17.0 68 3.8 SE 2 7 1 4 1015.3 1015.2 0.0
30/06:00am 23.9 25.6 17.2 66 4.1 SE 4 6 2 3 1015.0 1014.9 0.0
30/05:30am 24.0 25.6 17.0 65 4.3 SE 4 9 2 5 1014.9 1014.8 0.0
30/05:00am 24.4 25.0 16.9 63 4.6 ESE 9 15 5 8 1014.9 1014.8 0.0
30/04:30am 24.8 25.5 17.0 62 4.8 ESE 9 13 5 7 1014.7 1014.6 0.0
30/04:00am 24.9 25.2 16.9 61 4.9 ESE 11 17 6 9 1014.9 1014.8 0.0
30/03:30am 25.2 25.5 16.9 60 5.1 ESE 11 17 6 9 1015.0 1014.9 0.0
30/03:00am 25.3 25.6 17.0 60 5.1 ESE 11 15 6 8 1015.2 1015.1 0.0
30/02:30am 25.1 26.1 16.8 60 5.1 ESE 7 11 4 6 1015.3 1015.2 0.0
30/02:00am 25.0 26.0 16.4 59 5.3 ESE 6 7 3 4 1015.4 1015.3 0.0
30/01:30am 25.1 26.1 16.3 58 5.4 E 6 9 3 5 1015.5 1015.4 0.0
30/01:00am 25.2 26.1 16.1 57 5.6 ESE 6 6 3 3 1015.5 1015.4 0.0
30/12:30am 26.1 26.6 16.6 55 5.9 E 9 13 5 7 1015.4 1015.3 0.0
30/12:00am 26.6 27.1 16.5 54 6.2 ESE 9 13 5 7 1015.4 1015.3 0.0
 
Date/Time
CST
Temp
°C
App
Temp
°C
Dew
Point
°C
Rel
Hum
%
Delta-T
°C
Wind Press
QNH
hPa
Press
MSL
hPa
Rain since
9am
mm
Dir  Spd
km/h
Gust
km/h
Spd
kts
Gust
kts
29/11:30pm 27.0 27.1 16.6 53 6.4 E 11 15 6 8 1015.3 1015.2 0.0
29/11:00pm 27.4 27.7 17.0 53 6.5 E 11 17 6 9 1015.5 1015.4 0.0
29/10:30pm 27.4 28.1 17.0 53 6.5 E 9 15 5 8 1015.5 1015.4 0.0
29/10:00pm 26.6 27.6 16.8 55 6.1 E 7 11 4 6 1015.4 1015.3 0.0
29/09:30pm 26.4 27.4 16.3 53 6.2 ENE 6 9 3 5 1015.2 1015.1 0.0
29/09:00pm 27.0 28.0 16.3 52 6.6 E 6 7 3 4 1015.0 1014.9 0.0
29/08:30pm 27.5 28.4 16.5 51 6.8 E 7 11 4 6 1014.7 1014.6 0.0
29/08:00pm 26.7 27.9 16.9 55 6.1 ENE 6 7 3 4 1014.4 1014.3 0.0
29/07:30pm 27.3 28.5 16.9 53 6.5 NE 6 9 3 5 1014.0 1013.9 0.0
29/07:00pm 27.6 28.6 16.9 52 6.7 NNE 7 9 4 5 1013.5 1013.4 0.0
29/06:30pm 28.7 29.5 16.3 47 7.7 NE 7 11 4 6 1013.0 1012.9 0.0
29/06:00pm 30.2 30.6 16.2 42 8.7 NE 9 13 5 7 1012.5 1012.4 0.0
29/05:30pm 31.3 31.8 16.5 41 9.3 NE 9 17 5 9 1012.2 1012.1 0.0
29/05:00pm 32.3 32.3 16.2 38 10.1 ENE 11 15 6 8 1011.8 1011.7 0.0
29/04:30pm 33.0 32.3 15.5 35 10.9 ENE 13 22 7 12 1011.7 1011.6 0.0
29/04:00pm 33.4 33.1 15.4 34 11.2 ENE 11 28 6 15 1011.6 1011.5 0.0
29/03:30pm 33.5 32.7 15.0 32 11.5 ENE 13 22 7 12 1011.8 1011.7 0.0
29/03:00pm 33.2 31.9 14.8 33 11.4 E 15 24 8 13 1012.0 1011.9 0.0
29/02:30pm 33.2 31.7 14.3 32 11.6 E 15 24 8 13 1012.3 1012.2 0.0
29/02:00pm 33.1 31.4 14.7 33 11.3 E 17 26 9 14 1012.8 1012.7 0.0
29/01:30pm 33.1 31.8 14.7 33 11.3 ESE 15 26 8 14 1013.2 1013.1 0.0
29/01:00pm 32.8 31.9 14.9 34 11.0 E 13 20 7 11 1014.0 1013.9 0.0
29/12:30pm 31.8 29.6 14.4 34 10.6 E 19 30 10 16 1014.5 1014.4 0.0
29/12:00pm 31.3 29.1 14.4 35 10.3 ESE 19 28 10 15 1015.2 1015.1 0.0
29/11:30am 30.3 27.8 14.0 37 9.8 ESE 20 32 11 17 1015.7 1015.6 0.0
29/11:00am 29.9 27.6 14.0 37 9.6 ESE 19 30 10 16 1016.1 1016.0 0.0
29/10:30am 28.8 27.1 14.6 42 8.6 SE 17 32 9 17 1016.5 1016.4 0.0
29/10:00am 28.0 26.9 15.3 46 7.7 ESE 15 30 8 16 1016.6 1016.5 0.0
29/09:30am 26.6 25.7 15.9 51 6.5 SE 15 20 8 11 1016.6 1016.5 0.0
29/09:00am 26.0 25.5 16.0 54 6.1 SE 13 20 7 11 1016.6 1016.5 0.0
29/08:30am 25.5 25.3 15.8 55 5.9 SE 11 17 6 9 1016.5 1016.4 0.0
29/08:00am 24.6 24.1 15.0 55 5.7 SE 11 20 6 11 1016.3 1016.2 0.0
29/07:30am 23.2 23.8 13.1 53 5.8 S 2 7 1 4 1016.0 1015.9 0.0
29/07:00am 23.4 22.9 12.7 51 6.1 SE 7 11 4 6 1015.8 1015.7 0.0
29/06:30am 23.8 23.0 12.8 50 6.3 ESE 9 17 5 9 1015.7 1015.6 0.0
29/06:00am 23.3 22.8 12.6 51 6.1 E 7 11 4 6 1015.3 1015.2 0.0
29/05:30am 23.7 22.9 13.0 51 6.2 SE 9 19 5 10 1015.2 1015.1 0.0
29/05:00am 23.8 23.2 13.4 52 6.0 SE 9 17 5 9 1015.2 1015.1 0.0
29/04:30am 23.7 23.7 14.1 55 5.6 SE 7 13 4 7 1015.3 1015.2 0.0
29/04:00am 21.7 22.7 14.4 63 4.3 SE 2 6 1 3 1015.3 1015.2 0.0
29/03:30am 22.9 23.8 15.0 61 4.7 ESE 4 6 2 3 1015.4 1015.3 0.0
29/03:00am 24.0 25.2 15.8 60 5.0 ESE 4 9 2 5 1015.6 1015.5 0.0
29/02:30am 24.4 25.1 16.1 60 5.1 ESE 7 9 4 5 1015.8 1015.7 0.0
29/02:00am 24.7 25.7 16.9 62 4.8 ESE 7 15 4 8 1015.7 1015.6 0.0
29/01:30am 25.1 25.5 17.3 62 4.8 ESE 11 19 6 10 1015.9 1015.8 0.0
29/01:00am 25.5 25.9 17.2 60 5.2 ESE 11 19 6 10 1015.9 1015.8 0.0
29/12:30am 25.4 26.7 17.1 60 5.1 ESE 6 11 3 6 1015.9 1015.8 0.0
29/12:00am 26.0 26.7 17.1 58 5.5 ESE 9 13 5 7 1015.8 1015.7 0.0
 
Date/Time
CST
Temp
°C
App
Temp
°C
Dew
Point
°C
Rel
Hum
%
Delta-T
°C
Wind Press
QNH
hPa
Press
MSL
hPa
Rain since
9am
mm
Dir  Spd
km/h
Gust
km/h
Spd
kts
Gust
kts
28/11:30pm 26.5 26.4 17.0 56 5.9 ESE 13 19 7 10 1016.0 1015.9 0.0
28/11:00pm 27.0 26.4 16.6 53 6.4 ESE 15 20 8 11 1015.9 1015.8 0.0
28/10:30pm 27.6 27.0 16.6 51 6.8 ESE 15 24 8 13 1015.5 1015.4 0.0
28/10:00pm 28.1 27.8 16.4 49 7.3 SE 13 20 7 11 1015.4 1015.3 0.0
28/09:30pm 28.6 27.8 16.2 47 7.7 ESE 15 24 8 13 1015.2 1015.1 0.0
28/09:00pm 29.0 28.6 16.2 46 7.9 ESE 13 20 7 11 1015.0 1014.9 0.0
28/08:30pm 29.2 29.1 16.0 44 8.2 SE 11 17 6 9 1014.6 1014.5 0.0
28/08:00pm 29.4 29.8 16.2 44 8.2 ESE 9 20 5 11 1014.2 1014.1 0.0
28/07:30pm 29.7 30.0 16.1 43 8.4 ESE 9 15 5 8 1013.7 1013.6 0.0

Other Formats:

Comma delimited format used in spreadsheet applications
http://www.bom.gov.au/fwo/IDD60801/IDD60801.94110.axf

JavaScript Object Notation format (JSON) in row-major order
http://www.bom.gov.au/fwo/IDD60801/IDD60801.94110.json